Time;durP1;ratioP1;P1;durP2;ratioP2;P2;SDS_P1;SDS_P2;PMS_P1;PMS_P2;Temp;Humidity;BMP_temperature;BMP_pressure;BME280_temperature;BME280_humidity;BME280_pressure;Samples;Min_cycle;Max_cycle;Signal;HPM_P1;HPM_P2
2022/02/10 00:08:13;;;;;;;8.10;6.90;;;;;;;6.87;54.93;96354.78;5057957;28;20327;-85
2022/02/10 00:16:18;;;;;;;1.97;1.77;;;;;;;6.86;54.90;96342.94;5055791;28;20220;-86
2022/02/10 00:19:04;;;;;;;1.87;1.60;;;;;;;6.82;54.46;96347.50;5057831;28;20239;-85
2022/02/10 00:21:35;;;;;;;2.77;2.00;;;;;;;6.76;54.90;96344.66;5057175;28;20193;-86
2022/02/10 00:24:28;;;;;;;3.07;1.93;;;;;;;6.70;55.08;96342.66;5052638;28;20198;-85
2022/02/10 00:35:16;;;;;;;2.40;1.80;;;;;;;6.65;55.08;96342.25;5051154;28;20236;-85
2022/02/10 00:37:57;;;;;;;2.17;1.90;;;;;;;6.65;55.22;96340.50;5056631;28;20209;-85
2022/02/10 00:40:24;;;;;;;2.10;1.67;;;;;;;6.58;55.06;96335.09;5056896;28;20266;-86
2022/02/10 00:42:53;;;;;;;1.90;1.70;;;;;;;6.60;54.92;96340.06;5056173;28;20197;-84
2022/02/10 00:45:20;;;;;;;2.30;1.80;;;;;;;6.58;55.24;96339.41;5056227;28;20233;-85
2022/02/10 00:47:53;;;;;;;2.03;1.67;;;;;;;6.62;54.51;96339.94;5056159;28;20217;-86
2022/02/10 00:50:20;;;;;;;2.63;1.70;;;;;;;6.67;54.52;96338.59;5057641;28;20194;-85
2022/02/10 00:52:48;;;;;;;2.77;1.70;;;;;;;6.69;54.78;96343.59;5056561;28;20193;-85
2022/02/10 00:55:17;;;;;;;2.67;1.63;;;;;;;6.73;54.45;96335.53;5055444;28;20252;-85
2022/02/10 00:57:44;;;;;;;2.00;1.80;;;;;;;6.69;54.78;96336.72;5055835;28;20213;-84
2022/02/10 01:00:37;;;;;;;2.27;2.00;;;;;;;6.69;54.52;96334.16;5055968;28;20213;-84
2022/02/10 01:11:42;;;;;;;2.00;1.80;;;;;;;6.65;54.98;96335.38;5053961;28;20276;-85
2022/02/10 01:14:31;;;;;;;2.00;1.80;;;;;;;6.65;54.54;96332.00;5055604;28;20803;-86
2022/02/10 01:30:40;;;;;;;3.13;2.20;;;;;;;6.38;55.69;96336.00;5060006;28;20209;-86
2022/02/10 01:33:10;;;;;;;1.83;1.70;;;;;;;6.30;56.03;96345.28;5059022;28;20228;-85
2022/02/10 01:35:36;;;;;;;4.27;2.00;;;;;;;6.36;55.72;96342.19;5058069;28;20232;-86
2022/02/10 01:38:03;;;;;;;2.47;2.00;;;;;;;6.34;55.75;96333.88;5059577;28;20214;-85
2022/02/10 01:40:48;;;;;;;2.07;1.90;;;;;;;6.26;56.01;96331.94;5057741;28;20197;-85
2022/02/10 02:05:32;;;;;;;2.43;1.80;;;;;;;6.00;56.40;96306.03;5057669;28;20243;-85
2022/02/10 02:08:00;;;;;;;2.07;1.80;;;;;;;6.04;56.43;96301.47;5052856;28;20278;-85
2022/02/10 02:10:26;;;;;;;2.10;1.80;;;;;;;6.09;56.13;96307.03;5053865;28;20262;-85
2022/02/10 02:12:53;;;;;;;1.60;1.43;;;;;;;6.12;56.01;96302.47;5056405;28;20410;-86
2022/02/10 02:15:19;;;;;;;1.60;1.50;;;;;;;6.18;55.85;96296.81;5062236;28;20228;-85
2022/02/10 02:17:46;;;;;;;1.67;1.57;;;;;;;6.15;56.28;96294.53;5076089;28;20622;-85
2022/02/10 02:20:12;;;;;;;1.77;1.63;;;;;;;6.19;55.78;96289.94;5076306;28;20188;-85
2022/02/10 02:22:40;;;;;;;2.37;1.70;;;;;;;6.17;55.75;96279.84;5079768;28;20207;-85
2022/02/10 02:25:07;;;;;;;1.67;1.57;;;;;;;6.18;55.49;96276.34;5073275;28;20645;-85
2022/02/10 02:27:44;;;;;;;1.90;1.60;;;;;;;6.21;55.92;96270.97;5079040;28;20224;-84
2022/02/10 02:30:21;;;;;;;1.63;1.50;;;;;;;6.29;55.72;96272.88;5074001;28;20216;-85
2022/02/10 02:33:10;;;;;;;2.37;1.80;;;;;;;6.25;55.30;96268.97;5078436;28;20185;-84
2022/02/10 02:35:47;;;;;;;2.30;1.40;;;;;;;6.20;55.52;96269.34;5078760;28;20311;-86
2022/02/10 02:38:35;;;;;;;1.77;1.60;;;;;;;6.22;55.05;96266.66;5075049;28;20237;-85
2022/02/10 03:05:44;;;;;;;1.43;1.33;;;;;;;6.03;54.62;96248.75;5077954;28;20282;-85
2022/02/10 03:08:15;;;;;;;1.40;1.30;;;;;;;6.11;54.58;96247.16;5078079;28;20220;-84
2022/02/10 03:11:00;;;;;;;2.07;1.20;;;;;;;6.18;53.87;96248.22;5077685;28;20207;-86
2022/02/10 03:13:31;;;;;;;1.10;1.00;;;;;;;6.14;54.37;96246.09;5078326;28;20688;-85
2022/02/10 03:16:13;;;;;;;1.20;1.10;;;;;;;6.10;54.16;96231.94;5078453;28;20221;-85
2022/02/10 03:18:45;;;;;;;1.40;1.10;;;;;;;6.11;53.93;96236.13;5078060;28;20332;-85
2022/02/10 04:00:24;;;;;;;1.67;1.20;;;;;;;6.18;53.08;96232.88;5002121;28;20347;-84
2022/02/10 04:06:15;;;;;;;1.03;1.03;;;;;;;6.20;52.85;96227.63;4999152;28;20322;-86
2022/02/10 04:09:10;;;;;;;1.30;1.20;;;;;;;6.17;52.39;96240.69;5075464;28;20777;-85
2022/02/10 04:11:57;;;;;;;1.37;1.27;;;;;;;6.13;52.91;96236.78;5077098;28;20211;-85
2022/02/10 04:14:28;;;;;;;1.43;1.20;;;;;;;6.14;52.66;96231.56;5074556;28;20697;-85
2022/02/10 04:17:15;;;;;;;1.20;1.10;;;;;;;6.10;52.62;96227.63;5078457;28;20220;-85
2022/02/10 04:20:00;;;;;;;2.10;1.00;;;;;;;6.10;52.92;96229.38;5079080;28;20219;-85
2022/02/10 04:22:38;;;;;;;1.30;1.03;;;;;;;6.06;52.66;96228.03;5076074;28;20283;-85
2022/02/10 04:25:26;;;;;;;1.83;1.30;;;;;;;6.13;52.51;96224.81;5077404;28;20228;-85
2022/02/10 04:28:09;;;;;;;1.30;1.20;;;;;;;6.12;52.57;96228.31;5078182;28;20224;-85
2022/02/10 04:30:59;;;;;;;1.30;1.20;;;;;;;6.14;53.09;96215.41;5077549;28;20201;-85
2022/02/10 04:40:02;;;;;;;3.77;1.40;;;;;;;6.12;52.74;96207.06;5004798;28;20602;-85
2022/02/10 04:53:08;;;;;;;4.67;1.30;;;;;;;6.11;52.97;96215.66;5059842;28;20240;-85
2022/02/10 04:56:46;;;;;;;2.23;1.63;;;;;;;6.00;53.69;96201.25;5070688;28;20212;-85
2022/02/10 04:59:29;;;;;;;1.30;1.20;;;;;;;5.98;53.62;96203.13;5077208;28;20197;-85
2022/02/10 05:02:17;;;;;;;2.57;1.63;;;;;;;5.98;53.54;96198.00;5078492;28;20204;-85
2022/02/10 05:05:11;;;;;;;2.03;1.50;;;;;;;5.99;53.37;96204.75;5077226;28;20264;-85
2022/02/10 05:14:25;;;;;;;3.03;1.50;;;;;;;5.86;53.78;96201.59;5056630;28;20247;-85
2022/02/10 05:16:41;;;;;;;2.73;1.73;;;;;;;5.81;54.25;96209.66;5056124;28;20710;-84
2022/02/10 05:31:36;;;;;;;2.37;1.47;;;;;;;5.88;54.36;96210.78;5068418;28;20223;-85
2022/02/10 05:33:23;;;;;;;3.03;1.63;;;;;;;5.71;54.25;96211.41;5077958;28;20211;-86
2022/02/10 05:35:53;;;;;;;2.03;1.60;;;;;;;5.71;54.15;96206.28;5077164;28;20228;-83
2022/02/10 05:38:25;;;;;;;1.40;1.30;;;;;;;5.75;54.08;96204.28;5070981;28;20213;-85
2022/02/10 05:46:43;;;;;;;2.23;1.60;;;;;;;5.66;53.88;96203.31;5072682;28;20297;-82
2022/02/10 05:52:31;;;;;;;1.73;1.30;;;;;;;5.59;53.97;96207.31;5077307;28;20200;-82
2022/02/10 05:55:05;;;;;;;2.43;1.50;;;;;;;5.55;53.71;96216.19;5077003;28;20287;-82
2022/02/10 05:57:46;;;;;;;1.60;1.50;;;;;;;5.55;54.00;96213.66;5080962;28;20224;-82
2022/02/10 06:38:06;;;;;;;1.50;1.40;;;;;;;5.62;53.95;96208.81;5074966;28;20231;-82
2022/02/10 06:52:40;;;;;;;6.70;1.70;;;;;;;5.67;54.83;96232.22;5041534;28;20259;-82
2022/02/10 06:55:19;;;;;;;3.03;1.77;;;;;;;5.69;54.41;96227.78;5082147;28;20227;-83
2022/02/10 06:58:11;;;;;;;2.47;1.70;;;;;;;5.73;53.39;96232.53;5081378;28;20597;-83
2022/02/10 07:03:55;;;;;;;2.97;1.67;;;;;;;5.79;53.07;96233.72;5079814;28;20718;-83
2022/02/10 07:06:36;;;;;;;4.87;1.50;;;;;;;6.07;53.13;96235.56;5064914;28;20236;-82
2022/02/10 07:09:22;;;;;;;1.93;1.40;;;;;;;6.47;52.05;96227.78;5060497;28;20197;-82
2022/02/10 07:14:58;;;;;;;1.83;1.60;;;;;;;6.76;49.71;96234.63;5057847;28;20591;-82
2022/02/10 07:51:15;;;;;;;5.73;2.43;;;;;;;10.86;41.55;96214.06;5055185;28;20639;-82
2022/02/10 07:53:55;;;;;;;7.90;4.57;;;;;;;11.05;42.07;96215.47;5054517;28;20223;-83
2022/02/10 07:59:38;;;;;;;7.87;3.60;;;;;;;11.12;41.34;96213.06;5048973;28;20205;-83
2022/02/10 08:55:01;;;;;;;4.07;1.70;;;;;;;14.24;35.39;96177.44;5043534;28;20261;-83
2022/02/10 08:57:39;;;;;;;4.67;2.10;;;;;;;14.22;35.46;96167.28;5047672;28;20660;-83
2022/02/10 09:00:40;;;;;;;4.53;1.73;;;;;;;14.25;35.43;96174.63;5054083;28;20204;-83
2022/02/10 09:03:23;;;;;;;2.43;1.70;;;;;;;14.05;35.85;96177.03;5053308;28;20252;-83
2022/02/10 09:05:58;;;;;;;4.63;2.70;;;;;;;13.86;36.02;96169.84;5055025;28;20229;-83
2022/02/10 09:14:27;;;;;;;4.90;2.00;;;;;;;13.93;36.40;96170.75;5062068;28;20201;-84
2022/02/10 09:20:07;;;;;;;3.97;1.83;;;;;;;13.80;36.86;96174.00;5051871;28;20212;-83
2022/02/10 09:56:00;;;;;;;3.67;1.83;;;;;;;15.00;37.46;96168.94;5071938;28;20240;-85
2022/02/10 10:01:15;;;;;;;2.83;1.80;;;;;;;14.90;36.69;96176.22;5055264;28;20255;-83
2022/02/10 10:03:51;;;;;;;2.53;1.90;;;;;;;14.86;36.71;96169.81;5062606;28;20193;-84
2022/02/10 10:06:26;;;;;;;3.20;1.90;;;;;;;15.05;36.79;96163.97;5058912;28;20229;-83
2022/02/10 10:09:15;;;;;;;3.20;2.07;;;;;;;15.23;36.33;96162.66;5055138;28;20894;-83
2022/02/10 10:12:13;;;;;;;6.68;2.28;;;;;;;15.25;36.34;96173.66;5055444;28;20201;-83
2022/02/10 10:14:50;;;;;;;6.85;2.15;;;;;;;15.23;36.19;96163.47;5057026;28;20271;-83
2022/02/10 10:17:42;;;;;;;2.40;1.73;;;;;;;15.26;36.23;96163.09;5055907;28;20227;-83
2022/02/10 10:20:20;;;;;;;4.13;2.22;;;;;;;15.07;36.96;96150.81;5054330;28;20196;-83
2022/02/10 10:47:58;;;;;;;4.22;2.17;;;;;;;15.25;37.27;96116.59;5038145;28;20355;-83
2022/02/10 10:51:29;;;;;;;4.05;2.13;;;;;;;15.20;38.09;96119.78;4994760;28;20897;-83
2022/02/10 10:54:06;;;;;;;4.03;2.03;;;;;;;15.39;37.91;96113.06;5048120;28;20189;-83
2022/02/10 10:56:38;;;;;;;3.85;1.95;;;;;;;15.41;37.99;96111.06;5056885;28;20245;-84
2022/02/10 11:48:17;;;;;;;7.65;2.25;;;;;;;14.85;36.43;96073.09;5046612;28;20287;-84
2022/02/10 12:33:59;;;;;;;3.60;2.30;;;;;;;14.17;38.19;96024.56;5018655;28;20255;-83
2022/02/10 12:36:31;;;;;;;2.45;2.08;;;;;;;14.24;37.87;96022.81;5061799;28;20212;-83
2022/02/10 13:30:51;;;;;;;3.95;2.53;;;;;;;13.96;41.67;95978.00;5049966;28;20244;-82
2022/02/10 13:48:05;;;;;;;3.87;2.40;;;;;;;14.02;41.68;95979.84;5049557;28;20228;-83
2022/02/10 14:09:32;;;;;;;4.53;2.50;;;;;;;13.58;43.58;95977.47;5061663;28;20269;-83
2022/02/10 14:12:40;;;;;;;3.00;2.70;;;;;;;13.63;43.95;95981.13;5059045;28;20205;-84
2022/02/10 14:15:07;;;;;;;3.90;2.60;;;;;;;13.58;44.44;95991.22;5067792;28;20188;-84
2022/02/10 14:17:43;;;;;;;3.73;2.67;;;;;;;13.43;44.07;95977.53;5071336;28;20227;-83
2022/02/10 14:20:35;;;;;;;4.97;2.60;;;;;;;13.35;44.49;95977.66;5061875;28;20213;-84
2022/02/10 14:23:16;;;;;;;2.90;2.40;;;;;;;13.29;45.01;95983.53;5057351;28;20285;-84
2022/02/10 14:25:49;;;;;;;3.43;2.50;;;;;;;13.24;45.14;95984.13;5060307;28;20319;-85
2022/02/10 14:28:18;;;;;;;3.03;2.67;;;;;;;13.17;45.00;95983.22;5062232;28;20217;-84
2022/02/10 14:30:45;;;;;;;4.57;2.93;;;;;;;13.14;44.79;95984.38;5059931;28;20197;-84
2022/02/10 14:33:12;;;;;;;3.53;2.43;;;;;;;13.14;45.19;95974.03;5060150;28;20685;-84
2022/02/10 14:35:45;;;;;;;4.93;2.70;;;;;;;13.08;44.98;95974.75;5046653;28;20729;-84
2022/02/10 14:38:35;;;;;;;7.23;3.20;;;;;;;13.15;44.83;95974.84;5050484;28;20253;-84
2022/02/10 14:41:27;;;;;;;4.70;2.67;;;;;;;13.13;44.69;95987.13;5046745;28;20579;-83
2022/02/10 15:17:25;;;;;;;7.20;2.80;;;;;;;13.69;42.41;95964.03;5056466;28;20227;-83
2022/02/10 15:56:21;;;;;;;4.13;2.83;;;;;;;13.42;43.50;95971.56;5053757;28;20876;-83
2022/02/10 16:18:08;;;;;;;5.17;2.90;;;;;;;12.58;45.57;95964.41;5047657;28;20387;-83
2022/02/10 16:20:36;;;;;;;6.77;3.60;;;;;;;12.55;45.74;95962.97;5058688;28;20205;-83
2022/02/10 16:23:06;;;;;;;4.03;3.13;;;;;;;12.50;45.88;95959.34;5055322;28;20274;-83
2022/02/10 16:25:36;;;;;;;4.77;3.10;;;;;;;12.48;45.90;95958.72;5053045;28;20240;-83
2022/02/10 16:28:23;;;;;;;4.77;3.40;;;;;;;12.45;46.00;95957.28;5055637;28;20346;-83
2022/02/10 16:30:50;;;;;;;4.03;3.27;;;;;;;12.43;46.05;95957.47;5052795;28;20205;-83
2022/02/10 16:33:20;;;;;;;4.27;3.07;;;;;;;12.31;46.45;95956.31;5057644;28;20206;-83
2022/02/10 16:35:48;;;;;;;5.70;3.40;;;;;;;12.26;46.40;95947.50;5058378;28;20237;-83
2022/02/10 16:38:19;;;;;;;8.43;3.03;;;;;;;12.28;46.78;95955.88;5058209;28;20239;-82
2022/02/10 16:40:45;;;;;;;6.03;3.00;;;;;;;12.24;46.48;95946.88;5058060;28;20205;-82
2022/02/10 16:43:13;;;;;;;6.53;3.53;;;;;;;12.20;46.75;95941.25;5058986;28;20228;-82
2022/02/10 16:45:39;;;;;;;4.97;3.83;;;;;;;12.16;46.98;95944.38;5070411;28;20229;-80
2022/02/10 16:48:08;;;;;;;5.40;3.73;;;;;;;12.10;47.17;95951.84;5060936;28;20229;-82
2022/02/10 16:50:39;;;;;;;5.27;3.20;;;;;;;12.13;47.06;95955.03;5059111;28;20197;-82
2022/02/10 16:53:09;;;;;;;5.57;3.40;;;;;;;12.07;46.89;95954.78;5059955;28;20201;-82
2022/02/10 16:55:44;;;;;;;5.50;3.20;;;;;;;12.05;47.17;95959.31;5059104;28;20233;-82
2022/02/10 16:58:21;;;;;;;4.87;3.10;;;;;;;11.98;46.97;95965.34;5059710;28;20221;-82
2022/02/10 17:01:11;;;;;;;4.17;3.10;;;;;;;11.80;47.53;95964.88;5059238;28;20205;-82
2022/02/10 17:03:49;;;;;;;6.40;3.47;;;;;;;11.87;47.25;95966.59;5059424;28;20205;-82
2022/02/10 17:15:39;;;;;;;4.50;3.70;;;;;;;11.80;47.84;95967.44;5050372;28;20212;-81
2022/02/10 17:20:45;;;;;;;6.13;4.03;;;;;;;11.72;47.78;95971.69;5054897;28;20251;-82
2022/02/10 17:26:11;;;;;;;6.37;3.93;;;;;;;11.66;48.17;95974.16;5057261;28;20251;-81
2022/02/10 17:28:40;;;;;;;5.37;3.50;;;;;;;11.61;48.53;95979.81;5057176;28;20229;-82
2022/02/10 17:31:27;;;;;;;5.67;3.80;;;;;;;11.69;48.22;95974.59;5058476;28;20209;-82
2022/02/10 17:34:15;;;;;;;6.73;4.60;;;;;;;11.65;48.63;95977.69;5037844;28;20248;-82
2022/02/10 17:36:50;;;;;;;6.60;4.37;;;;;;;11.60;48.52;95985.16;5037213;28;20237;-82
2022/02/10 17:45:12;;;;;;;4.27;3.83;;;;;;;11.53;49.03;95997.16;5046772;28;20208;-82
2022/02/10 17:53:21;;;;;;;5.03;3.70;;;;;;;11.40;50.25;96032.00;5062436;28;20296;-82
2022/02/10 17:55:49;;;;;;;5.57;4.40;;;;;;;11.25;51.73;96031.13;5061394;28;20217;-82
2022/02/10 17:58:16;;;;;;;5.60;4.13;;;;;;;11.05;53.50;96038.47;5062388;28;20225;-82
2022/02/10 18:00:44;;;;;;;7.13;4.50;;;;;;;10.94;54.43;96036.28;5062386;28;20671;-82
2022/02/10 18:03:11;;;;;;;5.40;4.53;;;;;;;10.92;54.10;96040.00;5061768;28;20204;-82
2022/02/10 18:08:21;;;;;;;7.00;4.60;;;;;;;10.94;54.49;96030.34;5055749;28;20228;-82
2022/02/10 18:13:45;;;;;;;6.17;4.37;;;;;;;10.95;55.17;96030.16;4985899;28;20234;-82
2022/02/10 18:16:18;;;;;;;7.30;4.73;;;;;;;10.97;54.93;96033.34;5071348;28;20232;-82
2022/02/10 18:18:51;;;;;;;7.27;4.80;;;;;;;10.97;55.07;96043.66;5081800;28;20228;-82
2022/02/10 18:21:50;;;;;;;7.60;4.63;;;;;;;10.79;57.30;96047.44;5081107;28;20209;-82
2022/02/10 18:24:51;;;;;;;6.67;4.87;;;;;;;10.73;57.25;96051.50;5082373;28;20208;-82
2022/02/10 18:27:25;;;;;;;34.23;26.00;;;;;;;10.73;57.90;96052.31;5070192;28;20232;-82
2022/02/10 18:30:23;;;;;;;11.30;8.03;;;;;;;10.77;56.16;96052.78;5082660;28;20287;-82
2022/02/10 19:09:03;;;;;;;8.57;6.23;;;;;;;10.61;58.09;96097.38;5065450;28;20236;-82
2022/02/10 19:11:45;;;;;;;10.30;6.90;;;;;;;10.67;57.48;96093.34;5069537;28;20182;-83
2022/02/10 19:14:16;;;;;;;8.77;6.73;;;;;;;10.69;58.00;96091.41;5068917;28;20201;-81
2022/02/10 19:16:43;;;;;;;9.60;6.43;;;;;;;10.64;58.54;96084.19;5061665;28;20229;-81
2022/02/10 19:19:13;;;;;;;7.77;6.00;;;;;;;10.63;58.69;96090.28;5061068;28;20224;-81
2022/02/10 19:21:44;;;;;;;10.17;6.37;;;;;;;10.64;58.53;96102.22;5062191;28;20197;-81
2022/02/10 19:24:12;;;;;;;7.03;5.73;;;;;;;10.66;58.74;96091.75;5061698;28;20210;-81
2022/02/10 19:26:40;;;;;;;8.20;5.90;;;;;;;10.61;58.52;96094.81;5062128;28;20607;-82
2022/02/10 19:29:10;;;;;;;7.73;5.70;;;;;;;10.64;58.68;96109.94;5060307;28;20259;-82
2022/02/10 19:31:38;;;;;;;8.07;6.00;;;;;;;10.60;58.83;96097.53;5061597;28;20255;-82
2022/02/10 19:34:07;;;;;;;7.80;5.50;;;;;;;10.65;58.59;96103.81;5061000;28;20201;-82
2022/02/10 19:36:35;;;;;;;7.37;5.80;;;;;;;10.67;58.52;96111.38;5065978;28;20255;-82
2022/02/10 19:39:03;;;;;;;8.93;5.77;;;;;;;10.59;58.76;96107.03;5068565;28;20218;-82
2022/02/10 19:41:36;;;;;;;9.07;5.43;;;;;;;10.59;58.77;96108.81;5072187;28;20209;-82
2022/02/10 19:44:04;;;;;;;8.33;5.67;;;;;;;10.57;58.63;96109.00;5080393;28;20197;-82
2022/02/10 19:46:33;;;;;;;9.23;6.37;;;;;;;10.55;58.57;96110.94;5079287;28;20356;-82
2022/02/10 19:49:00;;;;;;;9.53;5.80;;;;;;;10.55;59.08;96123.00;5079655;28;20216;-82
2022/02/10 19:51:26;;;;;;;8.47;6.67;;;;;;;10.60;58.74;96118.13;5078877;28;20268;-82
2022/02/10 19:53:56;;;;;;;7.33;6.00;;;;;;;10.60;58.81;96121.53;5081051;28;20200;-82
2022/02/10 19:56:28;;;;;;;10.17;6.90;;;;;;;10.55;58.87;96117.84;5079489;28;20224;-82
2022/02/10 19:58:59;;;;;;;8.67;6.37;;;;;;;10.53;59.18;96119.78;5079947;28;20280;-82
2022/02/10 20:01:28;;;;;;;7.20;5.80;;;;;;;10.49;59.29;96128.78;5081068;28;20225;-82
2022/02/10 20:04:04;;;;;;;8.87;6.43;;;;;;;10.42;60.38;96132.97;5080350;28;20227;-82
2022/02/10 20:06:33;;;;;;;8.10;6.30;;;;;;;10.38;60.11;96135.09;5081504;28;20256;-82
2022/02/10 20:09:03;;;;;;;8.20;6.23;;;;;;;10.46;59.55;96121.38;5080698;28;20224;-82
2022/02/10 20:11:37;;;;;;;8.60;6.93;;;;;;;10.36;60.64;96137.00;5080459;28;20297;-82
2022/02/10 20:14:03;;;;;;;10.80;7.07;;;;;;;10.16;61.68;96139.06;5079356;28;20208;-82
2022/02/10 20:16:31;;;;;;;10.70;6.87;;;;;;;10.17;60.49;96143.25;5080234;28;20224;-82
2022/02/10 20:19:05;;;;;;;8.53;7.00;;;;;;;10.16;60.90;96131.34;5079328;28;20278;-82
2022/02/10 20:21:33;;;;;;;10.30;7.40;;;;;;;10.02;61.31;96135.34;5080265;28;20264;-82
2022/02/10 20:24:00;;;;;;;8.97;7.10;;;;;;;10.08;61.14;96133.09;5079572;28;20716;-82
2022/02/10 20:26:26;;;;;;;7.67;6.87;;;;;;;10.16;60.64;96131.34;5079617;28;20229;-82
2022/02/10 20:28:55;;;;;;;10.03;8.37;;;;;;;10.19;61.09;96125.91;5080427;28;20227;-82
2022/02/10 20:31:26;;;;;;;12.93;9.47;;;;;;;10.22;60.59;96125.56;5080288;28;20200;-82
2022/02/10 20:33:54;;;;;;;12.47;9.57;;;;;;;10.26;60.88;96134.59;5079925;28;20193;-82
2022/02/10 20:36:20;;;;;;;13.30;9.30;;;;;;;10.28;60.70;96137.00;5078994;28;20231;-82
2022/02/10 20:38:50;;;;;;;12.60;9.30;;;;;;;10.23;60.51;96140.03;5079269;28;20272;-82
2022/02/10 20:41:18;;;;;;;10.57;8.03;;;;;;;10.25;60.78;96127.81;5077758;28;20197;-82
2022/02/10 20:43:55;;;;;;;8.77;7.13;;;;;;;10.31;60.82;96131.53;5077391;28;20767;-82
2022/02/10 20:46:25;;;;;;;9.13;6.93;;;;;;;10.28;61.05;96134.41;5076476;28;20216;-82
2022/02/10 20:48:56;;;;;;;9.70;7.40;;;;;;;10.27;60.33;96128.47;5074483;28;20243;-82
2022/02/10 20:51:23;;;;;;;8.83;7.10;;;;;;;10.31;60.19;96128.97;5076229;28;20204;-82
2022/02/10 20:53:52;;;;;;;8.23;7.10;;;;;;;10.17;61.14;96132.97;5070110;28;20193;-82
2022/02/10 20:56:23;;;;;;;11.43;7.57;;;;;;;10.13;61.39;96136.00;5077190;28;20228;-82
2022/02/10 20:58:56;;;;;;;13.80;7.93;;;;;;;10.12;61.13;96139.53;5070055;28;20295;-82
2022/02/10 21:01:27;;;;;;;12.27;7.70;;;;;;;10.19;61.18;96133.63;5076281;28;20204;-82
2022/02/10 21:03:54;;;;;;;10.03;7.97;;;;;;;10.19;61.05;96140.53;5070729;28;20308;-82
2022/02/10 21:06:42;;;;;;;10.23;7.83;;;;;;;10.16;61.27;96130.53;5076103;28;20244;-82
2022/02/10 21:09:19;;;;;;;11.30;8.33;;;;;;;10.11;60.97;96122.47;5071905;28;20235;-82
2022/02/10 21:11:51;;;;;;;9.60;8.00;;;;;;;10.11;61.34;96109.63;5077247;28;20623;-82
2022/02/10 21:14:19;;;;;;;10.83;8.93;;;;;;;9.95;61.92;96103.50;5075404;28;20189;-82
2022/02/10 21:16:48;;;;;;;14.23;8.67;;;;;;;9.96;61.97;96099.97;5076925;28;20236;-82
2022/02/10 21:19:17;;;;;;;11.73;9.03;;;;;;;9.82;62.28;96103.16;5078862;28;20212;-82
2022/02/10 21:21:54;;;;;;;12.23;9.07;;;;;;;9.85;62.67;96105.41;5080616;28;20196;-82
2022/02/10 21:24:28;;;;;;;9.73;8.03;;;;;;;9.88;62.48;96105.09;5076619;28;20211;-82
2022/02/10 21:27:18;;;;;;;12.07;9.20;;;;;;;9.90;61.78;96102.38;5070571;28;20220;-82
2022/02/10 21:29:53;;;;;;;11.93;9.17;;;;;;;9.87;62.55;96095.78;5074740;28;20214;-82
2022/02/10 21:32:21;;;;;;;12.47;9.37;;;;;;;9.87;62.13;96090.63;5075562;28;20192;-82
2022/02/10 21:35:01;;;;;;;12.87;10.40;;;;;;;9.80;62.70;96096.59;5064784;28;20194;-83
2022/02/10 21:37:28;;;;;;;12.23;9.13;;;;;;;9.76;63.07;96103.00;5064047;28;20272;-82
2022/02/10 21:40:01;;;;;;;10.03;8.97;;;;;;;9.73;63.51;96098.16;5077398;28;20245;-82
2022/02/10 21:48:35;;;;;;;15.90;9.27;;;;;;;9.84;62.75;96097.84;5121173;27;20571;-83
2022/02/10 21:56:40;;;;;;;11.57;8.87;;;;;;;9.93;61.87;96095.16;5055784;28;20214;-83
2022/02/10 21:59:28;;;;;;;12.97;9.20;;;;;;;9.86;62.53;96091.59;5048578;28;20472;-83
2022/02/10 22:10:48;;;;;;;16.40;8.10;;;;;;;9.86;61.57;96073.59;5071974;28;20208;-83
2022/02/10 22:19:02;;;;;;;11.73;8.03;;;;;;;9.91;61.72;96065.41;5031494;28;20369;-82
2022/02/10 22:21:33;;;;;;;10.80;8.37;;;;;;;9.91;61.21;96066.19;5029796;28;20206;-83
2022/02/10 22:24:02;;;;;;;10.83;7.80;;;;;;;9.85;61.10;96061.69;5049826;28;20223;-83
2022/02/10 22:26:31;;;;;;;9.40;8.03;;;;;;;9.85;61.07;96053.16;5070963;28;20231;-83
2022/02/10 22:29:03;;;;;;;8.43;7.23;;;;;;;9.86;60.98;96055.59;5066307;28;20212;-83
2022/02/10 22:34:31;;;;;;;10.40;6.90;;;;;;;9.87;61.09;96051.25;5046000;28;20294;-83
2022/02/10 22:37:01;;;;;;;8.20;7.10;;;;;;;9.89;60.57;96057.84;5065545;28;20223;-83
2022/02/10 22:39:30;;;;;;;11.47;7.37;;;;;;;9.93;60.53;96051.41;5071279;28;20609;-82
2022/02/10 22:41:56;;;;;;;11.00;6.87;;;;;;;9.94;60.81;96047.06;5064872;28;20196;-83
2022/02/10 22:44:23;;;;;;;10.43;7.40;;;;;;;9.89;60.73;96039.84;5070707;28;20197;-83
2022/02/10 22:46:49;;;;;;;8.13;7.30;;;;;;;9.85;61.54;96050.59;5070227;28;20286;-83
2022/02/10 22:49:16;;;;;;;10.13;7.80;;;;;;;9.76;62.01;96051.56;5071704;28;20217;-83
2022/02/10 22:51:43;;;;;;;10.27;7.10;;;;;;;9.59;62.69;96046.41;5071634;28;20204;-83
2022/02/10 22:54:13;;;;;;;9.90;7.17;;;;;;;9.65;62.00;96032.91;5070803;28;20201;-82
2022/02/10 22:56:40;;;;;;;8.70;7.37;;;;;;;9.68;61.19;96032.59;5069729;28;20221;-83
2022/02/10 22:59:09;;;;;;;8.97;6.50;;;;;;;9.74;60.73;96031.16;5059639;28;20213;-82
2022/02/10 23:01:37;;;;;;;9.73;7.10;;;;;;;9.79;60.48;96038.41;5055255;28;20205;-82
2022/02/10 23:04:04;;;;;;;8.40;6.20;;;;;;;9.79;60.68;96035.84;5057044;28;20198;-83
2022/02/10 23:06:30;;;;;;;7.47;6.40;;;;;;;9.78;60.28;96019.59;5055893;28;20229;-83
2022/02/10 23:08:58;;;;;;;6.30;5.70;;;;;;;9.77;60.13;96022.31;5053317;28;20221;-83
2022/02/10 23:11:28;;;;;;;7.47;6.17;;;;;;;9.77;60.17;96024.91;5056576;28;20236;-83
2022/02/10 23:13:56;;;;;;;8.93;5.73;;;;;;;9.72;60.09;96011.72;5057304;28;20193;-83
2022/02/10 23:16:22;;;;;;;9.53;5.90;;;;;;;9.72;60.20;96009.94;5056664;28;20252;-83
2022/02/10 23:18:49;;;;;;;6.67;5.63;;;;;;;9.75;60.03;96003.69;5057590;28;20229;-83
2022/02/10 23:21:16;;;;;;;6.73;5.93;;;;;;;9.73;59.89;96001.25;5054012;28;20197;-82
2022/02/10 23:23:44;;;;;;;6.43;5.77;;;;;;;9.74;59.63;96004.63;5052435;28;20293;-82
2022/02/10 23:26:12;;;;;;;7.73;5.83;;;;;;;9.72;59.99;96006.56;5053656;28;20304;-82
2022/02/10 23:28:43;;;;;;;8.30;6.00;;;;;;;9.76;60.03;96007.84;5052196;28;20231;-82
2022/02/10 23:31:12;;;;;;;7.67;5.73;;;;;;;9.71;59.76;96000.63;5043396;28;20599;-83
2022/02/10 23:33:41;;;;;;;7.87;5.87;;;;;;;9.72;59.66;96001.44;5040615;28;20198;-83
2022/02/10 23:36:41;;;;;;;7.43;5.77;;;;;;;9.71;59.98;95995.47;5039772;28;20308;-82
2022/02/10 23:39:13;;;;;;;9.50;6.13;;;;;;;9.68;59.96;95985.50;5051723;28;20287;-83
2022/02/10 23:44:28;;;;;;;8.07;5.50;;;;;;;9.57;60.22;95984.06;5056369;28;20220;-82
2022/02/10 23:46:56;;;;;;;6.33;5.10;;;;;;;9.60;60.26;95983.75;5056054;28;20217;-82
2022/02/10 23:49:25;;;;;;;6.73;5.27;;;;;;;9.57;60.13;95983.28;5057633;28;20296;-83
2022/02/10 23:51:56;;;;;;;7.13;5.53;;;;;;;9.59;60.07;95982.16;5057570;28;20193;-83
2022/02/10 23:54:23;;;;;;;6.60;5.20;;;;;;;9.57;60.11;95986.66;5057860;28;20190;-82
2022/02/10 23:56:55;;;;;;;7.13;5.17;;;;;;;9.60;60.00;95980.38;5058251;28;20248;-82
2022/02/10 23:59:34;;;;;;;8.80;5.93;;;;;;;9.57;60.37;95971.22;5058493;28;20221;-82
